Time;durP1;ratioP1;P1;durP2;ratioP2;P2;SDS_P1;SDS_P2;PMS_P1;PMS_P2;Temp;Humidity;BMP_temperature;BMP_pressure;BME280_temperature;BME280_humidity;BME280_pressure;Samples;Min_cycle;Max_cycle;Signal;HPM_P1;HPM_P2
2021/12/10 00:01:42;;;;;;;4.57;2.47;;;;;;;4.04;88.54;95031.63;5037151;28;20225;-70
2021/12/10 00:04:11;;;;;;;3.83;2.53;;;;;;;3.83;88.81;95023.53;5036425;28;20208;-70
2021/12/10 00:06:42;;;;;;;3.20;2.27;;;;;;;4.21;88.15;95022.75;5037476;28;20203;-70
2021/12/10 00:09:11;;;;;;;3.90;1.90;;;;;;;4.22;87.89;95013.16;5037823;28;20201;-70
2021/12/10 00:11:41;;;;;;;4.37;2.93;;;;;;;4.11;88.06;95009.13;5036986;28;20221;-70
2021/12/10 00:14:08;;;;;;;6.37;1.70;;;;;;;4.12;87.54;95008.13;5036445;28;20213;-70
2021/12/10 00:16:35;;;;;;;3.20;2.20;;;;;;;3.81;88.33;95002.03;5037066;28;20234;-70
2021/12/10 00:19:15;;;;;;;3.13;1.67;;;;;;;3.77;87.75;94998.13;5037291;28;20215;-70
2021/12/10 00:21:44;;;;;;;3.80;2.33;;;;;;;4.13;88.10;94986.31;5037601;28;20227;-70
2021/12/10 00:24:11;;;;;;;8.23;3.00;;;;;;;4.10;87.63;94984.03;5036411;28;20219;-70
2021/12/10 00:26:37;;;;;;;4.00;1.00;;;;;;;3.94;87.10;94981.47;5036592;28;20256;-70
2021/12/10 00:29:06;;;;;;;4.10;2.53;;;;;;;3.80;87.75;94981.34;5036619;28;20234;-70
2021/12/10 00:31:46;;;;;;;2.70;1.77;;;;;;;3.92;88.05;94974.81;5037695;28;20232;-70
2021/12/10 00:34:18;;;;;;;2.00;1.70;;;;;;;3.94;87.79;94978.06;5035632;28;20203;-70
2021/12/10 00:36:47;;;;;;;1.73;1.63;;;;;;;3.85;88.25;94964.25;5036280;28;20239;-70
2021/12/10 00:39:17;;;;;;;1.83;1.57;;;;;;;3.93;87.71;94961.59;5037100;28;20202;-70
2021/12/10 00:41:44;;;;;;;3.23;2.07;;;;;;;3.74;87.32;94955.97;5036567;28;20225;-70
2021/12/10 00:44:10;;;;;;;6.10;2.43;;;;;;;3.53;87.13;94954.91;5035488;28;20212;-70
2021/12/10 00:46:37;;;;;;;4.63;2.47;;;;;;;3.47;87.75;94950.34;5036838;28;20204;-70
2021/12/10 00:49:05;;;;;;;2.97;2.03;;;;;;;3.82;87.42;94946.34;5036205;28;20202;-70
2021/12/10 00:51:32;;;;;;;4.63;2.57;;;;;;;3.50;87.41;94937.81;5036247;28;20716;-70
2021/12/10 00:54:00;;;;;;;3.67;2.60;;;;;;;3.70;86.93;94934.69;5036459;28;20204;-70
2021/12/10 00:56:26;;;;;;;12.50;2.07;;;;;;;3.55;86.50;94929.50;5035998;28;20315;-70
2021/12/10 00:58:53;;;;;;;3.13;1.97;;;;;;;3.19;88.38;94923.03;5036371;28;20208;-70
2021/12/10 01:01:25;;;;;;;2.87;1.80;;;;;;;3.42;87.81;94918.78;5034288;28;20217;-70
2021/12/10 01:03:55;;;;;;;2.00;1.80;;;;;;;3.67;87.87;94923.78;5035661;28;20307;-70
2021/12/10 01:06:23;;;;;;;3.10;1.90;;;;;;;3.44;87.36;94907.22;5035703;28;20678;-70
2021/12/10 01:08:52;;;;;;;3.03;1.57;;;;;;;3.57;87.22;94911.91;5036474;28;20561;-70
2021/12/10 01:11:27;;;;;;;8.63;3.40;;;;;;;3.50;86.84;94903.97;5036669;28;20229;-70
2021/12/10 01:13:57;;;;;;;4.97;2.77;;;;;;;3.41;86.79;94893.72;5035073;28;21109;-70
2021/12/10 01:25:06;;;;;;;4.53;2.37;;;;;;;3.43;85.86;94883.97;5036503;28;20283;-70
2021/12/10 01:27:38;;;;;;;9.33;3.53;;;;;;;3.55;85.24;94883.41;5036568;28;20612;-70
2021/12/10 01:30:11;;;;;;;3.87;3.40;;;;;;;3.52;85.63;94869.94;5036270;28;20208;-70
2021/12/10 01:32:41;;;;;;;4.67;2.83;;;;;;;3.44;86.62;94870.78;5035439;28;20214;-70
2021/12/10 01:35:12;;;;;;;2.80;2.20;;;;;;;3.46;86.35;94860.19;5035542;28;20206;-70
2021/12/10 01:37:38;;;;;;;3.50;3.07;;;;;;;2.93;87.14;94860.00;5035411;28;20213;-70
2021/12/10 01:40:07;;;;;;;4.67;2.27;;;;;;;3.07;87.68;94861.91;5036637;28;20215;-70
2021/12/10 01:42:42;;;;;;;5.60;2.80;;;;;;;3.16;87.61;94853.91;5036060;28;20739;-70
2021/12/10 01:45:18;;;;;;;5.33;1.70;;;;;;;3.24;87.46;94851.28;5035525;28;20349;-70
2021/12/10 01:47:56;;;;;;;2.77;1.83;;;;;;;3.22;87.36;94844.63;5035560;28;20834;-70
2021/12/10 01:50:24;;;;;;;3.40;1.90;;;;;;;3.02;86.53;94843.38;5036256;28;20197;-70
2021/12/10 01:52:53;;;;;;;1.53;1.40;;;;;;;3.16;86.48;94835.72;5035454;28;20225;-70
2021/12/10 01:55:21;;;;;;;4.23;2.23;;;;;;;3.18;86.66;94827.72;5035726;28;20220;-70
2021/12/10 01:57:50;;;;;;;4.30;2.60;;;;;;;3.27;86.45;94817.16;5035722;28;20221;-70
2021/12/10 02:00:20;;;;;;;3.03;2.53;;;;;;;3.23;85.76;94825.44;5032817;28;20202;-70
2021/12/10 02:02:48;;;;;;;2.70;1.97;;;;;;;3.23;85.13;94815.88;5034772;28;21206;-70
2021/12/10 02:05:16;;;;;;;4.20;2.70;;;;;;;3.18;85.35;94814.72;5035760;28;20197;-70
2021/12/10 02:07:42;;;;;;;2.27;2.03;;;;;;;2.91;86.38;94815.09;5035626;28;20220;-70
2021/12/10 02:10:11;;;;;;;5.47;2.93;;;;;;;3.07;86.14;94808.09;5034519;28;20235;-70
2021/12/10 02:12:38;;;;;;;4.17;2.10;;;;;;;2.48;85.57;94802.50;5035001;28;20224;-70
2021/12/10 02:15:10;;;;;;;5.30;2.27;;;;;;;2.89;83.63;94795.44;5035076;28;20212;-70
2021/12/10 02:17:41;;;;;;;4.43;1.80;;;;;;;2.75;83.18;94794.34;5035638;28;20221;-70
2021/12/10 02:20:11;;;;;;;3.03;2.50;;;;;;;2.72;82.61;94789.44;5036022;28;20209;-70
2021/12/10 02:22:39;;;;;;;3.57;2.23;;;;;;;2.25;83.30;94786.88;5042475;28;20228;-70
2021/12/10 02:25:08;;;;;;;4.80;1.80;;;;;;;2.45;81.86;94783.81;5039746;28;20259;-70
2021/12/10 02:27:35;;;;;;;3.30;2.17;;;;;;;2.35;82.33;94769.34;5039010;28;20209;-70
2021/12/10 02:30:01;;;;;;;6.87;3.07;;;;;;;2.14;83.75;94766.41;5039301;28;20205;-70
2021/12/10 02:32:28;;;;;;;4.23;2.37;;;;;;;2.14;82.37;94771.59;5038417;28;20232;-70
2021/12/10 02:34:55;;;;;;;1.23;1.13;;;;;;;2.27;82.94;94767.56;5039354;28;20201;-70
2021/12/10 02:37:22;;;;;;;4.23;2.30;;;;;;;2.23;83.32;94761.06;5039241;28;20597;-70
2021/12/10 02:39:50;;;;;;;1.67;1.57;;;;;;;2.49;82.93;94757.31;5038606;28;20205;-70
2021/12/10 02:42:16;;;;;;;1.93;1.63;;;;;;;2.19;83.21;94753.75;5038878;28;20233;-70
2021/12/10 02:44:43;;;;;;;1.97;1.40;;;;;;;2.21;84.27;94747.41;5039367;28;20685;-70
2021/12/10 02:47:10;;;;;;;1.43;1.33;;;;;;;2.18;84.80;94737.38;5039191;28;20205;-70
2021/12/10 02:49:36;;;;;;;2.30;1.70;;;;;;;2.25;85.03;94732.31;5038942;28;20216;-70
2021/12/10 02:52:05;;;;;;;0.77;0.77;;;;;;;2.43;85.27;94726.78;5038902;28;20231;-70
2021/12/10 02:54:35;;;;;;;2.57;2.20;;;;;;;2.30;85.46;94711.88;5038756;28;20215;-70
2021/12/10 02:57:08;;;;;;;2.10;1.50;;;;;;;2.82;85.26;94700.88;5039680;28;20213;-70
2021/12/10 02:59:35;;;;;;;1.07;1.00;;;;;;;2.63;83.90;94691.63;5035800;28;20203;-70
2021/12/10 03:02:06;;;;;;;1.27;1.03;;;;;;;2.81;83.91;94694.84;5038685;28;20739;-70
2021/12/10 03:04:34;;;;;;;3.70;1.73;;;;;;;2.33;85.54;94690.72;5038860;28;20787;-70
2021/12/10 03:07:07;;;;;;;2.77;1.63;;;;;;;2.43;84.99;94684.38;5038802;28;20209;-70
2021/12/10 03:09:33;;;;;;;3.90;1.63;;;;;;;2.48;85.13;94690.72;5038744;28;20255;-70
2021/12/10 03:12:00;;;;;;;3.23;1.50;;;;;;;2.56;84.68;94684.69;5038684;28;20234;-70
2021/12/10 03:14:31;;;;;;;1.77;1.33;;;;;;;2.65;83.66;94666.28;5037532;28;20209;-70
2021/12/10 03:17:01;;;;;;;3.30;2.70;;;;;;;2.52;84.76;94668.63;5038301;28;20201;-70
2021/12/10 03:19:28;;;;;;;1.57;1.43;;;;;;;2.32;84.67;94666.56;5037758;28;20228;-70
2021/12/10 03:21:54;;;;;;;3.73;2.43;;;;;;;2.37;83.82;94661.66;5037876;28;20607;-70
2021/12/10 03:24:25;;;;;;;1.07;1.03;;;;;;;2.48;83.34;94662.13;5037215;28;20197;-70
2021/12/10 03:26:54;;;;;;;1.80;1.63;;;;;;;2.61;82.81;94659.81;5038627;28;20197;-70
2021/12/10 03:29:21;;;;;;;1.90;1.30;;;;;;;2.44;83.02;94657.41;5038082;28;20209;-70
2021/12/10 03:31:51;;;;;;;5.67;1.30;;;;;;;2.67;81.89;94653.13;5037762;28;20224;-70
2021/12/10 03:34:18;;;;;;;10.60;2.10;;;;;;;2.42;81.62;94642.00;5037252;28;20201;-70
2021/12/10 03:36:48;;;;;;;3.63;2.10;;;;;;;2.39;82.30;94651.09;5038190;28;20699;-70
2021/12/10 03:39:17;;;;;;;1.93;1.50;;;;;;;2.26;81.79;94650.81;5037715;28;20313;-70
2021/12/10 03:41:44;;;;;;;4.27;1.93;;;;;;;1.93;81.32;94649.22;5034632;28;20223;-70
2021/12/10 03:44:11;;;;;;;1.43;1.23;;;;;;;2.18;81.08;94643.03;5037272;28;20724;-70
2021/12/10 03:46:38;;;;;;;1.33;1.17;;;;;;;1.86;80.64;94625.69;5038245;28;20214;-70
2021/12/10 03:49:07;;;;;;;3.63;1.87;;;;;;;2.00;80.97;94609.44;5037956;28;20198;-70
2021/12/10 03:51:36;;;;;;;4.07;2.07;;;;;;;1.52;81.82;94608.69;5037954;28;20739;-70
2021/12/10 03:54:03;;;;;;;1.03;0.83;;;;;;;1.03;82.57;94615.75;5037194;28;20205;-70
2021/12/10 03:56:31;;;;;;;5.23;1.40;;;;;;;1.04;83.29;94609.59;5037488;28;20201;-70
2021/12/10 03:59:01;;;;;;;2.47;1.37;;;;;;;1.18;82.88;94608.97;5036857;28;20579;-70
2021/12/10 04:01:32;;;;;;;1.33;1.23;;;;;;;1.18;82.04;94599.41;5037039;28;20221;-70
2021/12/10 04:04:02;;;;;;;3.13;1.17;;;;;;;1.12;79.51;94600.06;5036524;28;21034;-70
2021/12/10 04:06:30;;;;;;;3.20;1.73;;;;;;;1.18;78.26;94588.25;5037991;28;20206;-70
2021/12/10 04:08:57;;;;;;;20.57;1.83;;;;;;;0.92;78.80;94595.34;5037772;28;20200;-70
2021/12/10 04:11:25;;;;;;;1.80;1.57;;;;;;;0.94;80.16;94598.56;5037706;28;20212;-70
2021/12/10 04:13:53;;;;;;;1.37;1.07;;;;;;;0.87;79.96;94597.59;5036459;28;20216;-70
2021/12/10 04:16:22;;;;;;;1.33;1.03;;;;;;;0.80;78.88;94588.81;5037700;28;20208;-70
2021/12/10 04:18:51;;;;;;;1.07;0.97;;;;;;;0.91;77.88;94591.13;5037070;28;20220;-70
2021/12/10 04:21:19;;;;;;;1.57;1.47;;;;;;;0.82;78.07;94595.47;5036908;28;20218;-70
2021/12/10 04:23:48;;;;;;;1.17;0.83;;;;;;;0.80;76.48;94601.78;5036690;28;20208;-70
2021/12/10 04:26:19;;;;;;;1.63;1.40;;;;;;;0.63;77.13;94602.69;5037305;28;20207;-70
2021/12/10 04:28:46;;;;;;;2.13;0.87;;;;;;;0.67;77.69;94606.59;5036940;28;20197;-70
2021/12/10 04:31:14;;;;;;;1.03;0.80;;;;;;;0.44;76.62;94599.56;5037460;28;20708;-70
2021/12/10 04:33:40;;;;;;;0.60;0.60;;;;;;;0.24;75.76;94599.00;5036487;28;20200;-70
2021/12/10 04:36:08;;;;;;;0.70;0.70;;;;;;;0.30;77.31;94595.75;5036820;28;20201;-70
2021/12/10 04:38:35;;;;;;;3.50;1.77;;;;;;;0.27;77.42;94596.09;5037460;28;20274;-70
2021/12/10 04:41:08;;;;;;;0.63;0.63;;;;;;;0.43;76.43;94590.16;5037172;28;20271;-70
2021/12/10 04:43:37;;;;;;;2.93;1.70;;;;;;;0.21;76.37;94585.53;5035971;28;20203;-70
2021/12/10 04:46:04;;;;;;;2.23;1.77;;;;;;;-0.19;77.17;94579.31;5036836;28;20204;-70
2021/12/10 04:48:43;;;;;;;1.90;1.17;;;;;;;-0.46;77.33;94566.53;5036632;28;20293;-70
2021/12/10 04:51:09;;;;;;;1.00;1.00;;;;;;;-0.90;76.83;94564.94;5036262;28;20232;-70
2021/12/10 04:53:36;;;;;;;1.23;1.20;;;;;;;-0.93;77.60;94570.41;5036378;28;20216;-70
2021/12/10 04:56:04;;;;;;;3.73;2.63;;;;;;;-0.48;77.82;94550.38;5036777;28;20667;-70
2021/12/10 04:58:32;;;;;;;4.03;1.10;;;;;;;-0.65;77.91;94550.41;5036534;28;20236;-70
2021/12/10 05:01:00;;;;;;;1.57;1.50;;;;;;;-0.57;78.07;94546.13;5033018;28;20220;-70
2021/12/10 05:03:26;;;;;;;0.70;0.70;;;;;;;-0.89;81.57;94530.38;5036537;28;20253;-70
2021/12/10 05:05:59;;;;;;;2.73;1.73;;;;;;;-1.09;84.65;94528.91;5036879;28;20203;-70
2021/12/10 05:08:26;;;;;;;1.17;1.17;;;;;;;-0.86;84.84;94529.25;5036996;28;20308;-70
2021/12/10 05:10:52;;;;;;;0.90;0.90;;;;;;;-1.00;84.74;94517.66;5037078;28;20225;-70
2021/12/10 05:13:20;;;;;;;0.40;0.40;;;;;;;-0.85;84.45;94505.84;5035825;28;20209;-70
2021/12/10 05:15:53;;;;;;;2.43;1.13;;;;;;;-1.27;85.90;94513.56;5035991;28;20193;-70
2021/12/10 05:18:21;;;;;;;2.13;1.93;;;;;;;-1.10;85.09;94505.81;5036188;28;20312;-70
2021/12/10 05:20:48;;;;;;;4.93;1.77;;;;;;;-1.05;84.23;94506.97;5037205;28;20223;-70
2021/12/10 05:23:15;;;;;;;1.70;1.47;;;;;;;-1.25;83.74;94494.38;5035785;28;20657;-70
2021/12/10 05:25:43;;;;;;;1.23;1.13;;;;;;;-1.31;82.87;94494.16;5036296;28;20201;-70
2021/12/10 05:28:10;;;;;;;2.50;1.67;;;;;;;-1.09;83.08;94484.97;5036223;28;20205;-71
2021/12/10 05:30:38;;;;;;;1.10;1.10;;;;;;;-0.78;83.05;94481.00;5036948;28;20204;-71
2021/12/10 05:33:06;;;;;;;0.90;0.90;;;;;;;-0.68;82.48;94473.94;5035524;28;20218;-71
2021/12/10 05:35:34;;;;;;;1.80;1.70;;;;;;;-0.49;80.73;94461.59;5036806;28;20681;-71
2021/12/10 05:38:02;;;;;;;4.90;2.20;;;;;;;-0.86;77.73;94465.44;5036089;28;20231;-70
2021/12/10 05:40:28;;;;;;;1.77;1.30;;;;;;;-0.81;76.34;94465.78;5035583;28;20265;-71
2021/12/10 05:42:55;;;;;;;1.60;1.50;;;;;;;-0.79;75.89;94468.22;5036113;28;20681;-71
2021/12/10 05:45:22;;;;;;;4.40;1.93;;;;;;;-0.84;75.56;94466.09;5036303;28;20197;-70
2021/12/10 05:47:51;;;;;;;1.07;0.97;;;;;;;-0.87;76.32;94461.22;5036238;28;20208;-71
2021/12/10 05:50:22;;;;;;;2.03;1.90;;;;;;;-1.00;77.41;94460.81;5037195;28;21065;-71
2021/12/10 05:52:48;;;;;;;1.90;1.80;;;;;;;-1.44;76.57;94462.72;5036141;28;20230;-71
2021/12/10 05:55:15;;;;;;;1.40;1.30;;;;;;;-1.42;76.11;94463.41;5036630;28;20208;-70
2021/12/10 05:57:42;;;;;;;1.70;1.10;;;;;;;-1.30;76.32;94463.00;5039672;28;20197;-70
2021/12/10 06:00:13;;;;;;;0.63;0.63;;;;;;;-0.99;77.15;94446.94;5036736;28;20232;-70
2021/12/10 06:02:39;;;;;;;1.67;1.57;;;;;;;-1.11;77.89;94452.50;5039666;28;20224;-70
2021/12/10 06:05:08;;;;;;;1.43;1.33;;;;;;;-1.35;76.79;94448.91;5039648;28;20212;-70
2021/12/10 06:07:35;;;;;;;2.03;1.07;;;;;;;-1.77;76.56;94458.22;5040276;28;20205;-71
2021/12/10 06:10:01;;;;;;;0.60;0.60;;;;;;;-1.89;75.00;94456.81;5039796;28;20545;-70
2021/12/10 06:12:28;;;;;;;1.50;1.40;;;;;;;-1.92;76.19;94459.69;5036331;28;20261;-70
2021/12/10 06:14:54;;;;;;;1.33;1.33;;;;;;;-1.68;76.46;94450.41;5039603;28;20209;-70
2021/12/10 06:17:21;;;;;;;0.83;0.83;;;;;;;-1.68;75.63;94441.84;5039651;28;20219;-70
2021/12/10 06:19:47;;;;;;;1.10;1.00;;;;;;;-1.82;76.80;94439.78;5039578;28;20221;-70
2021/12/10 06:22:15;;;;;;;0.43;0.43;;;;;;;-1.62;77.32;94429.16;5038706;28;20229;-70
2021/12/10 06:24:42;;;;;;;1.20;1.10;;;;;;;-1.73;76.26;94426.03;5039447;28;20215;-70
2021/12/10 06:27:08;;;;;;;5.03;1.97;;;;;;;-1.88;75.39;94430.06;5039756;28;20218;-70
2021/12/10 06:29:36;;;;;;;0.77;0.77;;;;;;;-1.93;75.32;94421.94;5039159;28;20208;-70
2021/12/10 06:32:03;;;;;;;0.60;0.60;;;;;;;-1.73;74.40;94411.31;5038715;28;20708;-71
2021/12/10 06:34:30;;;;;;;0.57;0.57;;;;;;;-2.35;73.48;94415.69;5038492;28;20218;-70
2021/12/10 06:36:56;;;;;;;0.80;0.80;;;;;;;-2.23;72.40;94408.56;5040032;28;20210;-70
2021/12/10 06:39:24;;;;;;;17.73;0.90;;;;;;;-2.19;72.35;94405.56;5039022;28;20232;-70
2021/12/10 06:41:52;;;;;;;0.70;0.70;;;;;;;-2.22;76.34;94395.53;5038912;28;20220;-70
2021/12/10 06:44:20;;;;;;;1.27;1.17;;;;;;;-2.27;77.17;94396.91;5039054;28;20214;-71
2021/12/10 06:46:47;;;;;;;0.73;0.73;;;;;;;-2.18;76.73;94391.69;5036623;28;20203;-71
2021/12/10 06:49:15;;;;;;;0.87;0.87;;;;;;;-2.16;75.50;94381.25;5037358;28;20195;-71
2021/12/10 06:51:41;;;;;;;0.40;0.40;;;;;;;-2.54;75.72;94383.25;5036987;28;21228;-71
2021/12/10 06:54:08;;;;;;;4.47;1.50;;;;;;;-2.66;76.18;94376.66;5038086;28;20589;-71
2021/12/10 06:56:36;;;;;;;1.03;1.00;;;;;;;-2.15;76.54;94373.38;5037716;28;20615;-71
2021/12/10 06:59:05;;;;;;;2.10;0.90;;;;;;;-2.12;75.04;94367.91;5034769;28;20277;-71
2021/12/10 07:01:35;;;;;;;3.40;1.27;;;;;;;-2.37;74.14;94376.38;5036947;28;20234;-71
2021/12/10 07:04:04;;;;;;;0.70;0.70;;;;;;;-2.53;72.52;94375.38;5036564;28;20215;-71
2021/12/10 07:06:32;;;;;;;2.47;1.30;;;;;;;-2.47;74.75;94377.34;5037297;28;20253;-71
2021/12/10 07:09:00;;;;;;;1.63;1.07;;;;;;;-2.11;77.72;94376.47;5037478;28;20194;-71
2021/12/10 07:11:27;;;;;;;2.87;1.57;;;;;;;-2.26;77.99;94373.56;5037543;28;20225;-71
2021/12/10 07:13:58;;;;;;;1.63;1.53;;;;;;;-2.08;76.82;94371.81;5036583;28;20567;-71
2021/12/10 07:16:26;;;;;;;0.90;0.90;;;;;;;-1.99;77.61;94363.19;5037798;28;20207;-71
2021/12/10 07:18:54;;;;;;;2.23;0.90;;;;;;;-2.17;78.53;94375.25;5037008;28;20235;-71
2021/12/10 07:21:21;;;;;;;1.20;1.10;;;;;;;-2.28;78.00;94375.50;5037383;28;20226;-71
2021/12/10 07:23:48;;;;;;;1.60;1.23;;;;;;;-2.15;77.24;94368.19;5036985;28;20207;-71
2021/12/10 07:26:16;;;;;;;0.50;0.50;;;;;;;-2.38;77.15;94372.16;5038436;28;20213;-71
2021/12/10 07:28:43;;;;;;;0.90;0.90;;;;;;;-2.60;75.51;94376.09;5038032;28;20204;-70
2021/12/10 07:31:13;;;;;;;0.50;0.50;;;;;;;-2.28;75.52;94367.75;5038196;28;20223;-70
2021/12/10 07:33:41;;;;;;;0.90;0.90;;;;;;;-2.23;76.69;94364.72;5038032;28;20207;-70
2021/12/10 07:36:08;;;;;;;0.83;0.83;;;;;;;-2.57;75.75;94365.47;5038142;28;20230;-71
2021/12/10 07:38:36;;;;;;;1.30;1.20;;;;;;;-2.67;74.42;94365.53;5038210;28;20618;-71
2021/12/10 07:41:03;;;;;;;0.50;0.50;;;;;;;-2.56;74.99;94365.34;5037852;28;20804;-71
2021/12/10 07:43:29;;;;;;;0.70;0.70;;;;;;;-2.49;76.12;94357.88;5033258;28;20207;-71
2021/12/10 07:45:56;;;;;;;1.17;1.13;;;;;;;-2.06;75.46;94353.59;5036684;28;20291;-71
2021/12/10 07:48:28;;;;;;;0.50;0.50;;;;;;;-2.28;75.66;94356.59;5036679;28;20838;-71
2021/12/10 07:50:58;;;;;;;0.80;0.80;;;;;;;-2.11;74.23;94335.19;5036994;28;20217;-71
2021/12/10 07:53:27;;;;;;;1.33;1.23;;;;;;;-2.17;74.90;94330.63;5035914;28;20199;-71
2021/12/10 07:55:55;;;;;;;0.60;0.60;;;;;;;-2.38;73.64;94328.31;5036171;28;21132;-71
2021/12/10 07:58:22;;;;;;;0.67;0.60;;;;;;;-2.49;73.36;94326.94;5036908;28;20757;-71
2021/12/10 08:00:50;;;;;;;1.43;1.33;;;;;;;-2.51;73.80;94323.66;5034091;28;20995;-71
2021/12/10 08:03:17;;;;;;;2.20;1.33;;;;;;;-2.74;75.55;94336.13;5036078;28;20208;-71
2021/12/10 08:05:46;;;;;;;0.83;0.83;;;;;;;-3.12;78.56;94335.50;5036101;28;20204;-70
2021/12/10 08:08:13;;;;;;;4.20;1.47;;;;;;;-3.32;79.42;94344.28;5036850;28;20211;-70
2021/12/10 08:10:41;;;;;;;2.53;1.90;;;;;;;-2.90;80.25;94340.31;5036172;28;21040;-71
2021/12/10 08:13:08;;;;;;;2.37;2.17;;;;;;;-2.93;78.42;94330.28;5035219;28;20230;-70
2021/12/10 08:15:36;;;;;;;2.57;2.07;;;;;;;-2.47;78.38;94319.84;5036060;28;20205;-71
2021/12/10 08:18:03;;;;;;;2.87;1.43;;;;;;;-2.21;78.89;94308.66;5036319;28;20213;-71
2021/12/10 08:20:30;;;;;;;1.97;1.57;;;;;;;-2.08;78.59;94284.09;5035151;28;20217;-71
2021/12/10 08:22:58;;;;;;;1.20;1.13;;;;;;;-1.87;77.66;94261.38;5035593;28;20207;-71
2021/12/10 08:25:27;;;;;;;1.67;1.57;;;;;;;-1.89;78.14;94247.78;5035994;28;20204;-70
2021/12/10 08:27:55;;;;;;;1.80;1.07;;;;;;;-2.22;80.75;94233.03;5036002;28;20202;-70
2021/12/10 08:30:24;;;;;;;2.20;1.77;;;;;;;-1.98;81.67;94216.94;5036172;28;20238;-70
2021/12/10 08:32:53;;;;;;;2.27;2.07;;;;;;;-1.83;82.61;94213.66;5035502;28;20229;-71
2021/12/10 08:35:23;;;;;;;2.40;2.10;;;;;;;-1.66;77.96;94217.94;5035460;28;20282;-70
2021/12/10 08:37:50;;;;;;;2.77;1.93;;;;;;;-1.61;80.04;94213.13;5036266;28;20212;-70
2021/12/10 08:40:21;;;;;;;3.07;0.93;;;;;;;-1.07;80.22;94206.59;5037316;28;20228;-71
2021/12/10 08:42:47;;;;;;;0.93;0.93;;;;;;;-0.98;81.03;94205.63;5035867;28;20293;-71
2021/12/10 08:45:14;;;;;;;1.40;1.37;;;;;;;-0.78;81.33;94201.00;5036967;28;20207;-71
2021/12/10 08:47:41;;;;;;;1.40;1.30;;;;;;;-0.57;81.01;94197.00;5037134;28;20203;-72
2021/12/10 08:50:08;;;;;;;0.87;0.87;;;;;;;-0.34;79.66;94197.97;5036529;28;20216;-72
2021/12/10 08:52:35;;;;;;;0.43;0.43;;;;;;;-0.89;81.36;94214.19;5036025;28;20220;-71
2021/12/10 08:55:03;;;;;;;3.50;1.00;;;;;;;-0.79;79.54;94215.69;5036674;28;20693;-72
2021/12/10 08:57:31;;;;;;;2.60;1.27;;;;;;;-0.34;78.77;94222.06;5036353;28;20277;-72
2021/12/10 08:59:57;;;;;;;6.03;2.30;;;;;;;-0.69;79.16;94226.69;5032690;28;20313;-71
2021/12/10 09:02:24;;;;;;;1.30;1.20;;;;;;;-0.32;79.69;94220.13;5036859;28;20221;-71
2021/12/10 09:04:51;;;;;;;8.23;1.33;;;;;;;0.07;78.90;94236.63;5037022;28;20578;-71
2021/12/10 09:07:19;;;;;;;2.77;2.57;;;;;;;0.37;78.88;94222.97;5036265;28;20205;-72
2021/12/10 09:09:47;;;;;;;7.13;3.47;;;;;;;0.18;79.45;94226.75;5036413;28;20212;-70
2021/12/10 09:12:19;;;;;;;1.20;1.17;;;;;;;0.53;79.05;94223.75;5036222;28;20231;-70
2021/12/10 09:14:51;;;;;;;4.47;2.60;;;;;;;0.46;79.32;94222.81;5035787;28;20403;-70
2021/12/10 09:17:23;;;;;;;5.43;3.43;;;;;;;0.56;78.98;94200.13;5036143;28;20210;-70
2021/12/10 09:19:51;;;;;;;9.83;2.90;;;;;;;0.70;79.48;94194.22;5036857;28;20239;-71
2021/12/10 09:22:25;;;;;;;8.60;4.50;;;;;;;0.90;79.12;94195.44;5034786;28;20793;-71
2021/12/10 09:24:54;;;;;;;3.80;2.60;;;;;;;0.97;78.65;94194.59;5035280;28;20604;-72
2021/12/10 09:27:21;;;;;;;2.60;2.13;;;;;;;0.85;79.03;94185.59;5036058;28;20201;-71
2021/12/10 09:29:52;;;;;;;1.60;1.50;;;;;;;0.76;78.65;94196.97;5035241;28;20665;-72
2021/12/10 09:32:20;;;;;;;3.37;1.47;;;;;;;0.97;78.83;94201.56;5039724;28;20269;-70
2021/12/10 09:34:48;;;;;;;2.57;2.07;;;;;;;1.00;78.35;94198.66;5040381;28;20572;-70
2021/12/10 09:37:21;;;;;;;5.63;2.67;;;;;;;0.82;78.47;94211.03;5039614;28;20227;-70
2021/12/10 09:39:49;;;;;;;1.93;1.73;;;;;;;0.58;78.63;94221.47;5040472;28;20228;-70
2021/12/10 09:42:16;;;;;;;2.43;1.47;;;;;;;0.43;79.28;94214.56;5039209;28;20248;-71
2021/12/10 09:44:43;;;;;;;6.40;2.73;;;;;;;0.47;79.32;94224.44;5039835;28;20201;-71
2021/12/10 09:47:14;;;;;;;7.20;2.90;;;;;;;0.81;78.93;94227.56;5040602;28;20219;-70
2021/12/10 09:49:41;;;;;;;2.07;1.97;;;;;;;0.95;78.20;94216.50;5040140;28;20197;-69
2021/12/10 09:52:10;;;;;;;3.73;2.30;;;;;;;1.09;78.34;94219.19;5039446;28;20240;-69
2021/12/10 09:54:37;;;;;;;1.60;1.50;;;;;;;1.02;77.68;94212.25;5038806;28;21059;-71
2021/12/10 09:57:06;;;;;;;5.37;2.23;;;;;;;1.30;77.98;94202.06;5040407;28;20228;-72
2021/12/10 09:59:34;;;;;;;5.17;1.83;;;;;;;0.71;78.30;94204.44;5037882;28;20213;-71
2021/12/10 10:02:05;;;;;;;4.23;2.20;;;;;;;1.04;77.96;94198.13;5040056;28;20239;-70
2021/12/10 10:04:36;;;;;;;4.07;2.30;;;;;;;1.09;77.72;94189.84;5039752;28;20201;-70
2021/12/10 10:07:07;;;;;;;2.43;2.00;;;;;;;1.50;76.80;94184.25;5040234;28;20208;-70
2021/12/10 10:09:34;;;;;;;2.37;2.00;;;;;;;1.13;76.58;94175.56;5040058;28;20241;-70
2021/12/10 10:12:06;;;;;;;1.20;1.10;;;;;;;1.50;75.78;94172.09;5039740;28;20249;-70
2021/12/10 10:14:34;;;;;;;2.10;1.63;;;;;;;1.27;76.61;94173.03;5039138;28;20217;-70
2021/12/10 10:17:01;;;;;;;2.20;1.57;;;;;;;1.14;76.32;94172.81;5040053;28;20219;-70
2021/12/10 10:19:28;;;;;;;3.53;1.83;;;;;;;1.34;76.57;94154.03;5039743;28;20205;-71
2021/12/10 10:21:58;;;;;;;3.33;2.23;;;;;;;1.50;76.26;94143.56;5044152;28;20217;-71
2021/12/10 10:24:29;;;;;;;36.27;3.00;;;;;;;1.47;77.36;94143.88;5039730;28;20570;-71
2021/12/10 10:26:59;;;;;;;1.87;1.77;;;;;;;1.92;76.12;94128.25;5039211;28;20747;-71
2021/12/10 10:29:32;;;;;;;1.17;1.10;;;;;;;1.75;76.86;94126.00;5039406;28;20220;-71
2021/12/10 10:32:08;;;;;;;1.70;1.17;;;;;;;1.87;76.56;94131.41;5039220;28;20252;-71
2021/12/10 10:34:34;;;;;;;2.83;2.13;;;;;;;1.82;75.55;94136.31;5039161;28;20293;-71
2021/12/10 10:37:03;;;;;;;3.67;1.63;;;;;;;1.96;75.76;94139.91;5039259;28;20224;-71
2021/12/10 10:39:33;;;;;;;3.43;1.67;;;;;;;1.54;75.70;94144.00;5039447;28;20208;-71
2021/12/10 10:42:02;;;;;;;3.47;3.17;;;;;;;1.57;76.23;94141.88;5038337;28;20221;-71
2021/12/10 10:44:29;;;;;;;3.73;3.40;;;;;;;1.60;76.17;94138.13;5038199;28;20201;-71
2021/12/10 10:46:59;;;;;;;5.37;3.60;;;;;;;1.97;75.91;94138.94;5038979;28;20753;-71
2021/12/10 10:49:36;;;;;;;2.93;1.30;;;;;;;1.75;77.29;94124.22;5039233;28;20204;-71
2021/12/10 10:52:20;;;;;;;2.10;1.83;;;;;;;2.09;76.50;94099.38;5039168;28;20224;-71
2021/12/10 10:54:49;;;;;;;5.03;2.60;;;;;;;2.09;77.11;94099.38;5038796;28;21066;-71
2021/12/10 10:57:19;;;;;;;1.23;1.13;;;;;;;2.03;76.69;94104.47;5038730;28;20208;-71
2021/12/10 10:59:49;;;;;;;2.00;1.57;;;;;;;2.18;76.73;94097.50;5035553;28;20555;-71
2021/12/10 11:02:16;;;;;;;1.93;1.83;;;;;;;2.33;75.98;94098.31;5038283;28;20224;-71
2021/12/10 11:04:45;;;;;;;0.77;0.73;;;;;;;2.63;76.04;94098.13;5038558;28;20199;-71
2021/12/10 11:07:16;;;;;;;1.27;0.93;;;;;;;2.86;75.00;94096.19;5038639;28;20208;-71
2021/12/10 11:09:47;;;;;;;0.93;0.93;;;;;;;3.10;74.27;94099.28;5038549;28;20209;-71
2021/12/10 11:12:17;;;;;;;6.23;2.67;;;;;;;3.28;73.94;94094.47;5037758;28;20224;-71
2021/12/10 11:14:48;;;;;;;0.47;0.47;;;;;;;3.16;75.03;94095.94;5038668;28;20213;-71
2021/12/10 11:17:16;;;;;;;0.60;0.60;;;;;;;3.25;74.07;94094.84;5038759;28;20212;-71
2021/12/10 11:19:50;;;;;;;2.37;1.37;;;;;;;3.50;73.54;94089.09;5038207;28;20204;-69
2021/12/10 11:22:17;;;;;;;6.50;1.60;;;;;;;3.43;73.04;94092.63;5037629;28;20594;-71
2021/12/10 11:24:47;;;;;;;0.80;0.80;;;;;;;3.67;73.04;94088.63;5039450;28;20200;-68
2021/12/10 11:27:23;;;;;;;2.57;1.80;;;;;;;3.69;72.12;94078.84;5038439;28;20232;-70
2021/12/10 11:29:51;;;;;;;5.23;2.50;;;;;;;3.35;74.01;94079.72;5038140;28;20203;-67
2021/12/10 11:32:27;;;;;;;4.60;2.33;;;;;;;3.62;74.01;94071.97;5037568;28;20217;-67
2021/12/10 11:34:56;;;;;;;4.43;1.63;;;;;;;3.35;74.89;94079.72;5038500;28;20211;-70
2021/12/10 11:37:46;;;;;;;5.80;2.33;;;;;;;3.59;73.83;94072.34;5038430;28;20201;-68
2021/12/10 11:40:34;;;;;;;1.20;1.10;;;;;;;3.79;73.74;94074.13;5038007;28;20220;-69
2021/12/10 11:43:15;;;;;;;1.73;1.63;;;;;;;3.42;75.07;94070.97;5036813;28;20203;-69
2021/12/10 11:45:49;;;;;;;0.93;0.87;;;;;;;2.90;73.19;94068.84;5037987;28;20238;-68
2021/12/10 11:48:24;;;;;;;0.50;0.50;;;;;;;3.35;73.08;94085.72;5037665;28;20292;-69
2021/12/10 11:51:01;;;;;;;2.30;1.10;;;;;;;3.67;71.91;94088.63;5037754;28;20252;-69
2021/12/10 11:53:37;;;;;;;1.97;1.73;;;;;;;3.59;71.07;94092.34;5036508;28;20290;-69
2021/12/10 11:56:09;;;;;;;2.10;1.73;;;;;;;3.67;71.69;94095.63;5037786;28;20212;-68